LJLJ/LJU METAR and TAF weather

Enter ICAO airport designator
Station Type Date Time Source
LJLJ METAR 2019/11/18 04:30 UTC NOAA

LJLJ 180430Z 30003KT 270V330 9999 FEW010 BKN095 07/06 Q1008 R30/29//95 NOSIG


Station Type Date Time Source
LJLJ Decoded METAR 2019/11/18 04:30 UTC NOAA

Ljubljana / Brnik, Slovenia (LJLJ) 46-13N 014-29E 362M
Nov 17, 2019 - 11:30 PM EST / 2019.11.18 0430 UTC
Wind: from the WNW (300 degrees) at 3 MPH (3 KT) (direction variable):0
Visibility: greater than 7 mile(s):0
Sky conditions: mostly cloudy
Temperature: 44 F (7 C)
Dew Point: 42 F (6 C)
Relative Humidity: 93%
Pressure (altimeter): 29.77 in. Hg (1008 hPa)
ob: LJLJ 180430Z 30003KT 270V330 9999 FEW010 BKN095 07/06 Q1008 R30/29//95 NOSIG
cycle: 4

Station Type Date Time Source
LJLJ TAF 2019/11/18 03:53 UTC NOAA

TAF
AMD LJLJ 180345Z 1803/1903 28003KT 9999 SCT045 SCT250 PROB40
TEMPO 1803/1808 0500 PRFG BKN001
BECMG 1810/1811 25005KT SCT045
BECMG 1819/1822 BKN040
TEMPO 1821/1903 -RA BKN030 OVC050

Example: see airport list